sensor_id;sensor_type;location;lat;lon;timestamp;pressure;altitude;pressure_sealevel;temperature;humidity
12182;BME280;6154;51.550;12.138;2023-05-19T00:04:23;101495.25;;;16.48;44.96
12182;BME280;6154;51.550;12.138;2023-05-19T00:09:59;101492.69;;;16.47;44.86
12182;BME280;6154;51.550;12.138;2023-05-19T00:12:27;101488.41;;;16.44;43.34
12182;BME280;6154;51.550;12.138;2023-05-19T00:17:44;101493.91;;;16.41;44.34
12182;BME280;6154;51.550;12.138;2023-05-19T00:20:12;101492.41;;;16.37;43.49
12182;BME280;6154;51.550;12.138;2023-05-19T00:28:52;101485.34;;;16.36;44.48
12182;BME280;6154;51.550;12.138;2023-05-19T00:31:21;101476.00;;;16.29;43.60
12182;BME280;6154;51.550;12.138;2023-05-19T00:36:58;101476.44;;;16.21;45.34
12182;BME280;6154;51.550;12.138;2023-05-19T00:42:55;101477.31;;;16.22;44.40
12182;BME280;6154;51.550;12.138;2023-05-19T00:49:04;101471.41;;;16.17;44.65
12182;BME280;6154;51.550;12.138;2023-05-19T00:51:40;101478.66;;;16.15;43.47
12182;BME280;6154;51.550;12.138;2023-05-19T00:54:32;101470.91;;;16.10;45.33
12182;BME280;6154;51.550;12.138;2023-05-19T00:57:01;101465.88;;;16.05;46.85
12182;BME280;6154;51.550;12.138;2023-05-19T00:59:30;101461.09;;;15.96;44.00
12182;BME280;6154;51.550;12.138;2023-05-19T01:01:58;101462.16;;;15.94;43.99
12182;BME280;6154;51.550;12.138;2023-05-19T01:04:29;101460.69;;;15.88;44.07
12182;BME280;6154;51.550;12.138;2023-05-19T01:07:42;101462.75;;;15.83;44.39
12182;BME280;6154;51.550;12.138;2023-05-19T01:10:21;101469.06;;;15.82;47.19
12182;BME280;6154;51.550;12.138;2023-05-19T01:12:49;101466.28;;;15.69;44.62
12182;BME280;6154;51.550;12.138;2023-05-19T01:15:30;101463.59;;;15.69;44.62
12182;BME280;6154;51.550;12.138;2023-05-19T01:18:07;101472.38;;;15.71;46.22
12182;BME280;6154;51.550;12.138;2023-05-19T01:20:50;101463.59;;;15.69;45.47
12182;BME280;6154;51.550;12.138;2023-05-19T01:23:33;101464.75;;;15.65;45.27
12182;BME280;6154;51.550;12.138;2023-05-19T01:26:19;101459.41;;;15.65;47.21
12182;BME280;6154;51.550;12.138;2023-05-19T01:29:04;101462.41;;;15.59;46.54
12182;BME280;6154;51.550;12.138;2023-05-19T01:31:52;101466.22;;;15.55;46.67
12182;BME280;6154;51.550;12.138;2023-05-19T01:34:48;101468.19;;;15.51;44.80
12182;BME280;6154;51.550;12.138;2023-05-19T01:37:25;101468.56;;;15.45;44.88
12182;BME280;6154;51.550;12.138;2023-05-19T01:40:42;101463.31;;;15.44;46.28
12182;BME280;6154;51.550;12.138;2023-05-19T01:43:32;101471.94;;;15.33;45.19
12182;BME280;6154;51.550;12.138;2023-05-19T01:46:06;101469.53;;;15.29;45.18
12182;BME280;6154;51.550;12.138;2023-05-19T01:51:57;101471.78;;;15.20;45.77
12182;BME280;6154;51.550;12.138;2023-05-19T01:54:25;101473.16;;;15.12;45.80
12182;BME280;6154;51.550;12.138;2023-05-19T01:56:59;101476.97;;;15.08;45.71
12182;BME280;6154;51.550;12.138;2023-05-19T01:59:41;101475.44;;;15.04;46.55
12182;BME280;6154;51.550;12.138;2023-05-19T02:12:30;101472.56;;;14.91;49.73
12182;BME280;6154;51.550;12.138;2023-05-19T02:15:04;101469.41;;;14.84;46.54
12182;BME280;6154;51.550;12.138;2023-05-19T02:17:35;101471.28;;;14.82;46.22
12182;BME280;6154;51.550;12.138;2023-05-19T02:20:06;101467.16;;;14.77;46.07
12182;BME280;6154;51.550;12.138;2023-05-19T02:22:46;101469.06;;;14.75;45.96
12182;BME280;6154;51.550;12.138;2023-05-19T02:28:46;101474.28;;;14.60;50.83
12182;BME280;6154;51.550;12.138;2023-05-19T02:31:14;101469.44;;;14.51;46.82
12182;BME280;6154;51.550;12.138;2023-05-19T02:39:36;101469.84;;;14.44;46.47
12182;BME280;6154;51.550;12.138;2023-05-19T02:42:06;101467.59;;;14.36;47.31
12182;BME280;6154;51.550;12.138;2023-05-19T02:44:53;101469.12;;;14.24;47.70
12182;BME280;6154;51.550;12.138;2023-05-19T02:47:29;101472.41;;;14.12;51.16
12182;BME280;6154;51.550;12.138;2023-05-19T02:50:52;101466.28;;;13.94;49.74
12182;BME280;6154;51.550;12.138;2023-05-19T02:53:58;101476.84;;;13.78;48.84
12182;BME280;6154;51.550;12.138;2023-05-19T02:56:26;101466.38;;;13.75;51.28
12182;BME280;6154;51.550;12.138;2023-05-19T02:58:56;101465.91;;;13.67;49.13
12182;BME280;6154;51.550;12.138;2023-05-19T03:01:40;101462.28;;;13.68;48.82
12182;BME280;6154;51.550;12.138;2023-05-19T03:04:11;101453.91;;;13.59;52.74
12182;BME280;6154;51.550;12.138;2023-05-19T03:06:54;101461.69;;;13.63;48.98
12182;BME280;6154;51.550;12.138;2023-05-19T03:09:23;101462.75;;;13.59;50.26
12182;BME280;6154;51.550;12.138;2023-05-19T03:12:12;101461.03;;;13.58;49.56
12182;BME280;6154;51.550;12.138;2023-05-19T03:14:44;101459.94;;;13.62;52.85
12182;BME280;6154;51.550;12.138;2023-05-19T03:17:30;101461.97;;;13.57;49.40
12182;BME280;6154;51.550;12.138;2023-05-19T03:20:07;101459.25;;;13.59;52.81
12182;BME280;6154;51.550;12.138;2023-05-19T03:22:44;101469.19;;;13.55;50.20
12182;BME280;6154;51.550;12.138;2023-05-19T03:25:13;101467.47;;;13.54;49.61
12182;BME280;6154;51.550;12.138;2023-05-19T03:27:41;101472.72;;;13.56;49.44
12182;BME280;6154;51.550;12.138;2023-05-19T03:30:12;101465.50;;;13.58;50.09
12182;BME280;6154;51.550;12.138;2023-05-19T03:32:43;101468.00;;;13.61;49.66
12182;BME280;6154;51.550;12.138;2023-05-19T03:35:11;101470.28;;;13.68;49.76
12182;BME280;6154;51.550;12.138;2023-05-19T03:37:41;101471.69;;;13.75;49.85
12182;BME280;6154;51.550;12.138;2023-05-19T03:41:18;101473.06;;;13.82;49.35
12182;BME280;6154;51.550;12.138;2023-05-19T03:43:47;101472.12;;;14.01;52.07
12182;BME280;6154;51.550;12.138;2023-05-19T03:49:05;101470.09;;;14.06;49.35
12182;BME280;6154;51.550;12.138;2023-05-19T03:51:36;101473.53;;;14.08;49.19
12182;BME280;6154;51.550;12.138;2023-05-19T03:54:30;101472.38;;;14.14;48.92
12182;BME280;6154;51.550;12.138;2023-05-19T03:56:59;101480.19;;;14.17;49.46
12182;BME280;6154;51.550;12.138;2023-05-19T03:59:29;101476.06;;;14.27;48.80
12182;BME280;6154;51.550;12.138;2023-05-19T04:06:00;101478.47;;;14.49;51.96
12182;BME280;6154;51.550;12.138;2023-05-19T04:09:10;101488.00;;;14.53;51.06
12182;BME280;6154;51.550;12.138;2023-05-19T04:11:39;101484.78;;;14.63;49.93
12182;BME280;6154;51.550;12.138;2023-05-19T04:14:07;101485.28;;;14.70;48.69
12182;BME280;6154;51.550;12.138;2023-05-19T04:16:36;101478.69;;;14.77;48.90
12182;BME280;6154;51.550;12.138;2023-05-19T04:19:09;101479.28;;;14.82;48.79
12182;BME280;6154;51.550;12.138;2023-05-19T04:21:38;101478.84;;;14.90;48.90
12182;BME280;6154;51.550;12.138;2023-05-19T04:24:07;101475.09;;;14.94;48.76
12182;BME280;6154;51.550;12.138;2023-05-19T04:27:07;101478.00;;;15.05;48.66
12182;BME280;6154;51.550;12.138;2023-05-19T04:29:38;101473.00;;;15.15;48.39
12182;BME280;6154;51.550;12.138;2023-05-19T04:32:07;101477.63;;;15.27;48.25
12182;BME280;6154;51.550;12.138;2023-05-19T04:34:37;101482.44;;;15.36;48.50
12182;BME280;6154;51.550;12.138;2023-05-19T04:37:24;101490.66;;;15.47;48.33
12182;BME280;6154;51.550;12.138;2023-05-19T04:40:26;101485.66;;;15.57;51.31
12182;BME280;6154;51.550;12.138;2023-05-19T04:42:58;101489.62;;;15.66;48.31
12182;BME280;6154;51.550;12.138;2023-05-19T04:45:31;101486.50;;;15.73;48.44
12182;BME280;6154;51.550;12.138;2023-05-19T04:48:04;101477.06;;;15.82;48.27
12182;BME280;6154;51.550;12.138;2023-05-19T04:50:42;101472.03;;;15.92;48.19
12182;BME280;6154;51.550;12.138;2023-05-19T04:53:28;101480.84;;;15.94;49.33
12182;BME280;6154;51.550;12.138;2023-05-19T04:56:28;101483.72;;;16.05;50.70
12182;BME280;6154;51.550;12.138;2023-05-19T04:59:25;101474.53;;;16.09;48.76
12182;BME280;6154;51.550;12.138;2023-05-19T05:02:38;101484.97;;;16.14;48.47
12182;BME280;6154;51.550;12.138;2023-05-19T05:05:08;101486.38;;;16.19;48.62
12182;BME280;6154;51.550;12.138;2023-05-19T05:07:37;101485.16;;;16.25;48.25
12182;BME280;6154;51.550;12.138;2023-05-19T05:10:37;101480.28;;;16.31;48.60
12182;BME280;6154;51.550;12.138;2023-05-19T05:13:06;101485.06;;;16.41;49.60
12182;BME280;6154;51.550;12.138;2023-05-19T05:15:38;101483.41;;;16.52;48.60
12182;BME280;6154;51.550;12.138;2023-05-19T05:18:07;101483.25;;;16.55;48.31
12182;BME280;6154;51.550;12.138;2023-05-19T05:20:54;101487.06;;;16.65;48.11
12182;BME280;6154;51.550;12.138;2023-05-19T05:23:34;101475.88;;;16.73;48.19
12182;BME280;6154;51.550;12.138;2023-05-19T05:26:09;101476.47;;;16.78;49.20
12182;BME280;6154;51.550;12.138;2023-05-19T05:28:40;101478.75;;;16.84;48.72
12182;BME280;6154;51.550;12.138;2023-05-19T05:31:12;101484.66;;;16.89;49.51
12182;BME280;6154;51.550;12.138;2023-05-19T05:33:43;101479.34;;;17.02;48.50
12182;BME280;6154;51.550;12.138;2023-05-19T05:36:12;101472.28;;;17.15;48.17
12182;BME280;6154;51.550;12.138;2023-05-19T05:38:43;101481.78;;;17.19;48.84
12182;BME280;6154;51.550;12.138;2023-05-19T05:42:11;101476.69;;;17.29;48.04
12182;BME280;6154;51.550;12.138;2023-05-19T05:44:40;101477.94;;;17.50;49.34
12182;BME280;6154;51.550;12.138;2023-05-19T05:47:08;101475.28;;;17.63;47.47
12182;BME280;6154;51.550;12.138;2023-05-19T05:49:45;101483.81;;;17.83;47.20
12182;BME280;6154;51.550;12.138;2023-05-19T05:52:17;101484.91;;;17.93;48.27
12182;BME280;6154;51.550;12.138;2023-05-19T05:54:58;101489.97;;;17.97;47.85
12182;BME280;6154;51.550;12.138;2023-05-19T05:57:29;101486.94;;;18.02;47.36
12182;BME280;6154;51.550;12.138;2023-05-19T06:00:11;101493.28;;;18.14;47.53
12182;BME280;6154;51.550;12.138;2023-05-19T06:02:50;101493.06;;;18.29;47.78
12182;BME280;6154;51.550;12.138;2023-05-19T06:05:55;101494.87;;;18.54;47.35
12182;BME280;6154;51.550;12.138;2023-05-19T06:08:42;101491.47;;;18.65;46.92
12182;BME280;6154;51.550;12.138;2023-05-19T06:11:10;101486.06;;;18.78;46.81
12182;BME280;6154;51.550;12.138;2023-05-19T06:13:40;101496.09;;;19.00;46.41
12182;BME280;6154;51.550;12.138;2023-05-19T06:16:10;101498.28;;;18.94;46.83
12182;BME280;6154;51.550;12.138;2023-05-19T06:18:52;101494.00;;;19.16;46.23
12182;BME280;6154;51.550;12.138;2023-05-19T06:21:23;101494.91;;;19.28;46.34
12182;BME280;6154;51.550;12.138;2023-05-19T06:23:53;101497.94;;;19.23;46.17
12182;BME280;6154;51.550;12.138;2023-05-19T06:26:29;101491.88;;;19.32;46.17
12182;BME280;6154;51.550;12.138;2023-05-19T06:29:55;101503.09;;;19.26;46.61
12182;BME280;6154;51.550;12.138;2023-05-19T06:32:24;101492.22;;;19.51;46.30
12182;BME280;6154;51.550;12.138;2023-05-19T06:34:54;101495.47;;;19.44;46.03
12182;BME280;6154;51.550;12.138;2023-05-19T06:37:22;101497.44;;;19.66;46.00
12182;BME280;6154;51.550;12.138;2023-05-19T06:39:54;101501.63;;;19.81;45.92
12182;BME280;6154;51.550;12.138;2023-05-19T06:43:00;101507.06;;;20.03;45.84
12182;BME280;6154;51.550;12.138;2023-05-19T06:45:39;101501.75;;;20.37;45.27
12182;BME280;6154;51.550;12.138;2023-05-19T06:48:32;101503.75;;;20.57;45.82
12182;BME280;6154;51.550;12.138;2023-05-19T06:51:04;101496.78;;;20.66;44.85
12182;BME280;6154;51.550;12.138;2023-05-19T06:53:32;101496.28;;;20.72;44.88
12182;BME280;6154;51.550;12.138;2023-05-19T06:56:02;101497.59;;;21.00;44.63
12182;BME280;6154;51.550;12.138;2023-05-19T06:58:31;101494.50;;;21.16;44.39
12182;BME280;6154;51.550;12.138;2023-05-19T07:03:47;101493.34;;;21.41;44.34
12182;BME280;6154;51.550;12.138;2023-05-19T07:06:27;101488.34;;;21.68;43.82
12182;BME280;6154;51.550;12.138;2023-05-19T07:09:18;101481.03;;;21.59;43.17
12182;BME280;6154;51.550;12.138;2023-05-19T07:11:47;101483.09;;;21.67;43.92
12182;BME280;6154;51.550;12.138;2023-05-19T07:14:17;101487.69;;;21.97;43.86
12182;BME280;6154;51.550;12.138;2023-05-19T07:17:20;101485.00;;;21.97;43.68
12182;BME280;6154;51.550;12.138;2023-05-19T07:19:53;101479.31;;;22.42;43.60
12182;BME280;6154;51.550;12.138;2023-05-19T07:22:39;101474.00;;;22.61;43.14
12182;BME280;6154;51.550;12.138;2023-05-19T07:25:08;101473.87;;;22.72;42.96
12182;BME280;6154;51.550;12.138;2023-05-19T07:27:37;101475.53;;;23.04;42.67
12182;BME280;6154;51.550;12.138;2023-05-19T07:30:12;101464.19;;;23.10;42.46
12182;BME280;6154;51.550;12.138;2023-05-19T07:32:48;101469.88;;;23.07;41.77
12182;BME280;6154;51.550;12.138;2023-05-19T07:35:16;101463.91;;;23.13;42.36
12182;BME280;6154;51.550;12.138;2023-05-19T07:37:45;101465.50;;;23.35;42.21
12182;BME280;6154;51.550;12.138;2023-05-19T07:40:13;101470.78;;;23.46;42.27
12182;BME280;6154;51.550;12.138;2023-05-19T07:42:42;101465.78;;;23.51;41.79
12182;BME280;6154;51.550;12.138;2023-05-19T07:45:12;101464.81;;;23.71;41.70
12182;BME280;6154;51.550;12.138;2023-05-19T07:47:52;101462.97;;;23.62;41.47
12182;BME280;6154;51.550;12.138;2023-05-19T07:50:23;101456.97;;;23.88;41.51
12182;BME280;6154;51.550;12.138;2023-05-19T07:53:23;101453.38;;;24.06;41.18
12182;BME280;6154;51.550;12.138;2023-05-19T07:55:55;101457.59;;;24.19;41.33
12182;BME280;6154;51.550;12.138;2023-05-19T07:58:25;101454.34;;;24.15;41.42
12182;BME280;6154;51.550;12.138;2023-05-19T08:00:55;101450.16;;;24.30;41.38
12182;BME280;6154;51.550;12.138;2023-05-19T08:03:45;101449.31;;;24.20;40.76
12182;BME280;6154;51.550;12.138;2023-05-19T08:06:28;101456.00;;;24.26;39.67
12182;BME280;6154;51.550;12.138;2023-05-19T08:08:57;101464.41;;;24.32;41.09
12182;BME280;6154;51.550;12.138;2023-05-19T08:11:26;101451.75;;;24.60;41.08
12182;BME280;6154;51.550;12.138;2023-05-19T08:13:54;101455.41;;;24.69;40.80
12182;BME280;6154;51.550;12.138;2023-05-19T08:16:23;101451.75;;;24.60;40.40
12182;BME280;6154;51.550;12.138;2023-05-19T08:18:55;101450.25;;;24.76;40.12
12182;BME280;6154;51.550;12.138;2023-05-19T08:21:24;101454.41;;;24.98;40.66
12182;BME280;6154;51.550;12.138;2023-05-19T08:23:52;101455.22;;;25.26;40.43
12182;BME280;6154;51.550;12.138;2023-05-19T08:26:21;101446.91;;;25.45;40.57
12182;BME280;6154;51.550;12.138;2023-05-19T08:28:53;101449.34;;;25.48;40.48
12182;BME280;6154;51.550;12.138;2023-05-19T08:31:21;101444.44;;;25.34;40.00
12182;BME280;6154;51.550;12.138;2023-05-19T08:33:51;101438.66;;;25.46;40.05
12182;BME280;6154;51.550;12.138;2023-05-19T08:36:20;101443.72;;;25.67;40.24
12182;BME280;6154;51.550;12.138;2023-05-19T08:38:50;101443.19;;;25.64;39.21
12182;BME280;6154;51.550;12.138;2023-05-19T08:41:19;101446.22;;;25.61;39.42
12182;BME280;6154;51.550;12.138;2023-05-19T08:43:47;101435.84;;;25.56;38.61
12182;BME280;6154;51.550;12.138;2023-05-19T08:46:15;101438.19;;;25.95;39.94
12182;BME280;6154;51.550;12.138;2023-05-19T08:49:10;101441.97;;;26.02;38.83
12182;BME280;6154;51.550;12.138;2023-05-19T08:51:47;101438.69;;;25.55;39.18
12182;BME280;6154;51.550;12.138;2023-05-19T08:54:23;101433.81;;;26.02;38.08
12182;BME280;6154;51.550;12.138;2023-05-19T08:56:53;101439.25;;;26.28;38.82
12182;BME280;6154;51.550;12.138;2023-05-19T08:59:23;101428.50;;;26.52;38.69
12182;BME280;6154;51.550;12.138;2023-05-19T09:01:53;101421.94;;;26.63;38.30
12182;BME280;6154;51.550;12.138;2023-05-19T09:04:23;101421.47;;;26.76;38.26
12182;BME280;6154;51.550;12.138;2023-05-19T09:06:58;101419.59;;;26.68;37.40
12182;BME280;6154;51.550;12.138;2023-05-19T09:09:29;101410.97;;;26.13;37.27
12182;BME280;6154;51.550;12.138;2023-05-19T09:11:58;101416.91;;;26.08;37.98
12182;BME280;6154;51.550;12.138;2023-05-19T09:14:27;101417.94;;;26.07;37.96
12182;BME280;6154;51.550;12.138;2023-05-19T09:16:55;101407.91;;;25.82;36.87
12182;BME280;6154;51.550;12.138;2023-05-19T09:19:27;101405.53;;;25.78;38.37
12182;BME280;6154;51.550;12.138;2023-05-19T09:22:01;101401.34;;;25.66;37.57
12182;BME280;6154;51.550;12.138;2023-05-19T09:24:31;101407.63;;;25.67;36.97
12182;BME280;6154;51.550;12.138;2023-05-19T09:27:14;101408.94;;;25.81;36.64
12182;BME280;6154;51.550;12.138;2023-05-19T09:29:49;101404.94;;;25.93;37.57
12182;BME280;6154;51.550;12.138;2023-05-19T09:32:23;101405.94;;;25.66;36.50
12182;BME280;6154;51.550;12.138;2023-05-19T09:34:53;101404.91;;;25.67;36.16
12182;BME280;6154;51.550;12.138;2023-05-19T09:37:23;101405.63;;;25.95;36.08
12182;BME280;6154;51.550;12.138;2023-05-19T09:39:52;101395.59;;;26.21;36.98
12182;BME280;6154;51.550;12.138;2023-05-19T09:42:24;101396.16;;;26.33;36.44
12182;BME280;6154;51.550;12.138;2023-05-19T09:44:58;101396.53;;;26.80;36.26
12182;BME280;6154;51.550;12.138;2023-05-19T09:47:32;101396.78;;;26.53;34.87
12182;BME280;6154;51.550;12.138;2023-05-19T09:50:00;101393.44;;;26.67;35.79
12182;BME280;6154;51.550;12.138;2023-05-19T09:52:34;101385.59;;;26.64;36.80
12182;BME280;6154;51.550;12.138;2023-05-19T09:55:02;101391.16;;;26.54;35.13
12182;BME280;6154;51.550;12.138;2023-05-19T09:57:33;101392.28;;;26.78;36.26
12182;BME280;6154;51.550;12.138;2023-05-19T10:00:18;101388.91;;;26.92;36.56
12182;BME280;6154;51.550;12.138;2023-05-19T10:03:05;101393.19;;;27.11;33.88
12182;BME280;6154;51.550;12.138;2023-05-19T10:12:15;101379.78;;;27.09;34.85
12182;BME280;6154;51.550;12.138;2023-05-19T10:18:33;101381.16;;;27.30;34.01
12182;BME280;6154;51.550;12.138;2023-05-19T10:21:04;101383.69;;;27.15;34.22
12182;BME280;6154;51.550;12.138;2023-05-19T10:27:45;101382.25;;;26.78;34.26
12182;BME280;6154;51.550;12.138;2023-05-19T10:30:20;101370.16;;;26.64;33.65
12182;BME280;6154;51.550;12.138;2023-05-19T10:32:49;101371.84;;;26.65;34.58
12182;BME280;6154;51.550;12.138;2023-05-19T10:35:35;101377.09;;;26.51;34.93
12182;BME280;6154;51.550;12.138;2023-05-19T10:41:25;101368.25;;;27.07;34.25
12182;BME280;6154;51.550;12.138;2023-05-19T10:51:07;101368.84;;;26.93;32.88
12182;BME280;6154;51.550;12.138;2023-05-19T10:53:40;101361.41;;;27.03;33.69
12182;BME280;6154;51.550;12.138;2023-05-19T10:56:28;101358.19;;;27.40;33.29
12182;BME280;6154;51.550;12.138;2023-05-19T11:01:55;101347.81;;;27.52;33.11
12182;BME280;6154;51.550;12.138;2023-05-19T11:07:19;101343.41;;;28.15;32.72
12182;BME280;6154;51.550;12.138;2023-05-19T11:15:24;101355.75;;;28.42;32.57
12182;BME280;6154;51.550;12.138;2023-05-19T11:17:53;101347.97;;;28.30;32.23
12182;BME280;6154;51.550;12.138;2023-05-19T11:20:23;101334.44;;;28.45;33.72
12182;BME280;6154;51.550;12.138;2023-05-19T11:23:06;101344.34;;;29.00;32.21
12182;BME280;6154;51.550;12.138;2023-05-19T11:25:43;101323.16;;;28.56;31.29
12182;BME280;6154;51.550;12.138;2023-05-19T11:28:14;101323.06;;;28.42;31.38
12182;BME280;6154;51.550;12.138;2023-05-19T11:34:13;101321.84;;;28.44;32.27
12182;BME280;6154;51.550;12.138;2023-05-19T11:36:43;101320.88;;;28.37;33.99
12182;BME280;6154;51.550;12.138;2023-05-19T11:39:13;101316.09;;;28.39;33.44
12182;BME280;6154;51.550;12.138;2023-05-19T11:41:42;101322.66;;;28.53;33.33
12182;BME280;6154;51.550;12.138;2023-05-19T11:44:10;101326.09;;;28.08;32.36
12182;BME280;6154;51.550;12.138;2023-05-19T11:46:38;101313.09;;;27.78;33.80
12182;BME280;6154;51.550;12.138;2023-05-19T11:49:08;101314.03;;;28.02;33.18
12182;BME280;6154;51.550;12.138;2023-05-19T11:51:38;101311.19;;;28.34;33.52
12182;BME280;6154;51.550;12.138;2023-05-19T11:54:07;101317.63;;;28.42;33.27
12182;BME280;6154;51.550;12.138;2023-05-19T11:56:55;101326.78;;;28.01;33.18
12182;BME280;6154;51.550;12.138;2023-05-19T11:59:28;101316.97;;;27.92;32.75
12182;BME280;6154;51.550;12.138;2023-05-19T12:02:02;101311.94;;;28.12;32.74
12182;BME280;6154;51.550;12.138;2023-05-19T12:04:30;101302.88;;;27.89;32.72
12182;BME280;6154;51.550;12.138;2023-05-19T12:06:59;101311.69;;;28.38;33.71
12182;BME280;6154;51.550;12.138;2023-05-19T12:09:27;101311.72;;;28.22;33.95
12182;BME280;6154;51.550;12.138;2023-05-19T12:11:57;101311.53;;;28.31;33.59
12182;BME280;6154;51.550;12.138;2023-05-19T12:14:29;101315.47;;;28.29;32.88
12182;BME280;6154;51.550;12.138;2023-05-19T12:17:37;101310.72;;;28.54;33.60
12182;BME280;6154;51.550;12.138;2023-05-19T12:20:06;101314.53;;;28.45;33.57
12182;BME280;6154;51.550;12.138;2023-05-19T12:22:36;101314.50;;;28.76;33.85
12182;BME280;6154;51.550;12.138;2023-05-19T12:25:05;101310.00;;;28.83;32.84
12182;BME280;6154;51.550;12.138;2023-05-19T12:27:35;101300.72;;;29.38;33.15
12182;BME280;6154;51.550;12.138;2023-05-19T12:30:05;101301.34;;;29.77;33.02
12182;BME280;6154;51.550;12.138;2023-05-19T12:32:34;101294.34;;;29.75;33.00
12182;BME280;6154;51.550;12.138;2023-05-19T12:35:04;101299.34;;;29.57;33.11
12182;BME280;6154;51.550;12.138;2023-05-19T12:37:33;101288.44;;;29.57;33.26
12182;BME280;6154;51.550;12.138;2023-05-19T12:40:02;101287.47;;;29.64;32.74
12182;BME280;6154;51.550;12.138;2023-05-19T12:42:31;101279.19;;;29.72;30.83
12182;BME280;6154;51.550;12.138;2023-05-19T12:45:03;101270.94;;;29.51;32.91
12182;BME280;6154;51.550;12.138;2023-05-19T12:47:33;101275.16;;;29.16;32.87
12182;BME280;6154;51.550;12.138;2023-05-19T12:50:03;101272.62;;;29.52;33.00
12182;BME280;6154;51.550;12.138;2023-05-19T12:52:44;101271.84;;;29.73;32.95
12182;BME280;6154;51.550;12.138;2023-05-19T12:55:14;101271.88;;;29.88;30.04
12182;BME280;6154;51.550;12.138;2023-05-19T12:57:46;101266.34;;;29.66;32.57
12182;BME280;6154;51.550;12.138;2023-05-19T13:00:19;101273.91;;;29.86;32.07
12182;BME280;6154;51.550;12.138;2023-05-19T13:02:58;101266.47;;;29.94;31.52
12182;BME280;6154;51.550;12.138;2023-05-19T13:05:43;101269.78;;;29.75;30.59
12182;BME280;6154;51.550;12.138;2023-05-19T13:08:14;101265.72;;;30.00;29.56
12182;BME280;6154;51.550;12.138;2023-05-19T13:10:56;101253.87;;;30.08;31.81
12182;BME280;6154;51.550;12.138;2023-05-19T13:13:44;101266.03;;;30.42;30.67
12182;BME280;6154;51.550;12.138;2023-05-19T13:16:33;101262.66;;;30.61;31.89
12182;BME280;6154;51.550;12.138;2023-05-19T13:19:18;101261.88;;;30.10;31.53
12182;BME280;6154;51.550;12.138;2023-05-19T13:21:49;101258.88;;;29.90;31.20
12182;BME280;6154;51.550;12.138;2023-05-19T13:24:32;101260.25;;;30.00;31.95
12182;BME280;6154;51.550;12.138;2023-05-19T13:31:13;101249.53;;;30.56;31.43
12182;BME280;6154;51.550;12.138;2023-05-19T13:34:06;101247.84;;;30.70;30.92
12182;BME280;6154;51.550;12.138;2023-05-19T13:37:16;101255.41;;;30.53;28.97
12182;BME280;6154;51.550;12.138;2023-05-19T13:40:03;101247.06;;;30.19;29.57
12182;BME280;6154;51.550;12.138;2023-05-19T13:42:31;101245.72;;;30.51;29.08
12182;BME280;6154;51.550;12.138;2023-05-19T13:44:59;101249.00;;;30.82;31.16
12182;BME280;6154;51.550;12.138;2023-05-19T13:47:28;101246.47;;;30.81;31.31
12182;BME280;6154;51.550;12.138;2023-05-19T13:49:59;101246.84;;;31.06;30.99
12182;BME280;6154;51.550;12.138;2023-05-19T13:52:27;101239.34;;;30.44;30.84
12182;BME280;6154;51.550;12.138;2023-05-19T13:54:56;101241.53;;;30.55;31.37
12182;BME280;6154;51.550;12.138;2023-05-19T14:00:19;101237.41;;;30.80;29.62
12182;BME280;6154;51.550;12.138;2023-05-19T14:02:48;101241.44;;;30.42;30.50
12182;BME280;6154;51.550;12.138;2023-05-19T14:05:17;101241.34;;;30.35;31.45
12182;BME280;6154;51.550;12.138;2023-05-19T14:08:27;101247.28;;;30.39;30.88
12182;BME280;6154;51.550;12.138;2023-05-19T14:13:41;101246.31;;;30.89;29.21
12182;BME280;6154;51.550;12.138;2023-05-19T14:23:50;101236.63;;;29.93;29.37
12182;BME280;6154;51.550;12.138;2023-05-19T14:26:19;101239.25;;;29.12;31.10
12182;BME280;6154;51.550;12.138;2023-05-19T14:34:42;101237.59;;;29.41;30.24
12182;BME280;6154;51.550;12.138;2023-05-19T14:37:10;101237.56;;;29.11;32.18
12182;BME280;6154;51.550;12.138;2023-05-19T14:48:45;101228.91;;;30.11;30.58
12182;BME280;6154;51.550;12.138;2023-05-19T14:51:13;101230.19;;;30.15;30.49
12182;BME280;6154;51.550;12.138;2023-05-19T14:53:42;101237.25;;;30.46;31.18
12182;BME280;6154;51.550;12.138;2023-05-19T14:56:10;101234.78;;;30.51;30.71
12182;BME280;6154;51.550;12.138;2023-05-19T14:58:38;101237.84;;;30.41;31.31
12182;BME280;6154;51.550;12.138;2023-05-19T15:01:07;101228.78;;;30.19;31.52
12182;BME280;6154;51.550;12.138;2023-05-19T15:03:35;101232.28;;;30.13;30.87
12182;BME280;6154;51.550;12.138;2023-05-19T15:06:08;101237.84;;;30.41;31.04
12182;BME280;6154;51.550;12.138;2023-05-19T15:08:45;101237.75;;;31.20;29.53
12182;BME280;6154;51.550;12.138;2023-05-19T15:11:21;101245.62;;;30.80;29.97
12182;BME280;6154;51.550;12.138;2023-05-19T15:13:49;101249.69;;;30.27;30.92
12182;BME280;6154;51.550;12.138;2023-05-19T15:16:18;101243.16;;;30.07;31.06
12182;BME280;6154;51.550;12.138;2023-05-19T15:18:47;101246.00;;;31.05;30.59
12182;BME280;6154;51.550;12.138;2023-05-19T15:21:18;101255.06;;;31.06;29.96
12182;BME280;6154;51.550;12.138;2023-05-19T15:23:48;101257.63;;;30.43;29.96
12182;BME280;6154;51.550;12.138;2023-05-19T15:26:17;101256.53;;;30.38;30.92
12182;BME280;6154;51.550;12.138;2023-05-19T15:28:59;101258.84;;;30.19;31.11
12182;BME280;6154;51.550;12.138;2023-05-19T15:32:27;101255.22;;;29.68;29.87
12182;BME280;6154;51.550;12.138;2023-05-19T15:34:57;101245.25;;;29.60;31.58
12182;BME280;6154;51.550;12.138;2023-05-19T15:37:28;101248.56;;;30.79;30.65
12182;BME280;6154;51.550;12.138;2023-05-19T15:39:56;101231.62;;;31.53;29.76
12182;BME280;6154;51.550;12.138;2023-05-19T15:42:25;101235.50;;;32.13;29.59
12182;BME280;6154;51.550;12.138;2023-05-19T15:44:57;101235.62;;;32.39;29.82